sensor_id;sensor_type;location;lat;lon;timestamp;P1;durP1;ratioP1;P2;durP2;ratioP2
21018;SDS011;10667;51.056;3.732;2024-02-16T00:01:43;4.85;;;3.42;;
21018;SDS011;10667;51.056;3.732;2024-02-16T00:04:08;6.32;;;3.58;;
21018;SDS011;10667;51.056;3.732;2024-02-16T00:06:34;8.23;;;3.20;;
21018;SDS011;10667;51.056;3.732;2024-02-16T00:08:59;6.45;;;3.35;;
21018;SDS011;10667;51.056;3.732;2024-02-16T00:11:26;4.30;;;3.15;;
21018;SDS011;10667;51.056;3.732;2024-02-16T00:13:52;4.30;;;3.33;;
21018;SDS011;10667;51.056;3.732;2024-02-16T00:16:18;4.85;;;3.28;;
21018;SDS011;10667;51.056;3.732;2024-02-16T00:18:44;6.63;;;3.50;;
21018;SDS011;10667;51.056;3.732;2024-02-16T00:21:09;6.38;;;3.72;;
21018;SDS011;10667;51.056;3.732;2024-02-16T00:23:35;4.82;;;3.20;;
21018;SDS011;10667;51.056;3.732;2024-02-16T00:26:01;5.82;;;3.22;;
21018;SDS011;10667;51.056;3.732;2024-02-16T00:28:30;4.90;;;3.40;;
21018;SDS011;10667;51.056;3.732;2024-02-16T00:30:55;7.32;;;3.80;;
21018;SDS011;10667;51.056;3.732;2024-02-16T00:33:21;4.63;;;3.45;;
21018;SDS011;10667;51.056;3.732;2024-02-16T00:35:47;4.88;;;3.30;;
21018;SDS011;10667;51.056;3.732;2024-02-16T00:38:14;8.35;;;3.72;;
21018;SDS011;10667;51.056;3.732;2024-02-16T00:40:40;4.65;;;3.22;;
21018;SDS011;10667;51.056;3.732;2024-02-16T00:43:08;5.60;;;3.20;;
21018;SDS011;10667;51.056;3.732;2024-02-16T00:45:34;6.50;;;3.50;;
21018;SDS011;10667;51.056;3.732;2024-02-16T00:48:00;4.70;;;3.00;;
21018;SDS011;10667;51.056;3.732;2024-02-16T00:50:27;4.25;;;2.85;;
21018;SDS011;10667;51.056;3.732;2024-02-16T00:52:53;6.25;;;3.20;;
21018;SDS011;10667;51.056;3.732;2024-02-16T00:55:18;4.50;;;3.15;;
21018;SDS011;10667;51.056;3.732;2024-02-16T00:57:44;6.05;;;3.28;;
21018;SDS011;10667;51.056;3.732;2024-02-16T01:00:10;6.03;;;3.90;;
21018;SDS011;10667;51.056;3.732;2024-02-16T01:02:36;5.28;;;3.60;;
21018;SDS011;10667;51.056;3.732;2024-02-16T01:05:01;6.28;;;3.63;;
21018;SDS011;10667;51.056;3.732;2024-02-16T01:07:28;5.55;;;3.53;;
21018;SDS011;10667;51.056;3.732;2024-02-16T01:09:54;7.28;;;3.67;;
21018;SDS011;10667;51.056;3.732;2024-02-16T01:12:21;6.22;;;3.85;;
21018;SDS011;10667;51.056;3.732;2024-02-16T01:14:47;5.15;;;3.35;;
21018;SDS011;10667;51.056;3.732;2024-02-16T01:17:13;6.00;;;3.63;;
21018;SDS011;10667;51.056;3.732;2024-02-16T01:19:38;5.30;;;3.53;;
21018;SDS011;10667;51.056;3.732;2024-02-16T01:22:05;7.68;;;4.18;;
21018;SDS011;10667;51.056;3.732;2024-02-16T01:24:30;5.47;;;3.80;;
21018;SDS011;10667;51.056;3.732;2024-02-16T01:26:56;5.93;;;3.63;;
21018;SDS011;10667;51.056;3.732;2024-02-16T01:29:23;5.18;;;3.80;;
21018;SDS011;10667;51.056;3.732;2024-02-16T01:31:48;5.60;;;3.75;;
21018;SDS011;10667;51.056;3.732;2024-02-16T01:34:14;6.88;;;3.60;;
21018;SDS011;10667;51.056;3.732;2024-02-16T01:36:40;5.07;;;3.55;;
21018;SDS011;10667;51.056;3.732;2024-02-16T01:39:06;6.95;;;4.00;;
21018;SDS011;10667;51.056;3.732;2024-02-16T01:41:32;7.07;;;3.75;;
21018;SDS011;10667;51.056;3.732;2024-02-16T01:43:58;6.95;;;4.10;;
21018;SDS011;10667;51.056;3.732;2024-02-16T01:46:24;5.90;;;4.15;;
21018;SDS011;10667;51.056;3.732;2024-02-16T01:48:51;5.57;;;3.83;;
21018;SDS011;10667;51.056;3.732;2024-02-16T01:51:18;8.43;;;4.05;;
21018;SDS011;10667;51.056;3.732;2024-02-16T01:53:43;6.60;;;3.88;;
21018;SDS011;10667;51.056;3.732;2024-02-16T01:56:10;7.18;;;4.20;;
21018;SDS011;10667;51.056;3.732;2024-02-16T01:58:35;7.35;;;4.03;;
21018;SDS011;10667;51.056;3.732;2024-02-16T02:01:01;7.68;;;4.25;;
21018;SDS011;10667;51.056;3.732;2024-02-16T02:03:28;7.28;;;4.35;;
21018;SDS011;10667;51.056;3.732;2024-02-16T02:05:54;4.85;;;3.85;;
21018;SDS011;10667;51.056;3.732;2024-02-16T02:08:21;9.57;;;4.18;;
21018;SDS011;10667;51.056;3.732;2024-02-16T02:10:46;6.95;;;4.15;;
21018;SDS011;10667;51.056;3.732;2024-02-16T02:13:12;7.25;;;3.90;;
21018;SDS011;10667;51.056;3.732;2024-02-16T02:15:38;6.82;;;3.47;;
21018;SDS011;10667;51.056;3.732;2024-02-16T02:18:03;5.10;;;4.00;;
21018;SDS011;10667;51.056;3.732;2024-02-16T02:20:29;6.03;;;3.90;;
21018;SDS011;10667;51.056;3.732;2024-02-16T02:22:55;8.15;;;3.85;;
21018;SDS011;10667;51.056;3.732;2024-02-16T02:25:20;7.45;;;3.83;;
21018;SDS011;10667;51.056;3.732;2024-02-16T02:27:46;6.53;;;3.83;;
21018;SDS011;10667;51.056;3.732;2024-02-16T02:30:12;8.63;;;3.53;;
21018;SDS011;10667;51.056;3.732;2024-02-16T02:32:37;5.60;;;3.80;;
21018;SDS011;10667;51.056;3.732;2024-02-16T02:35:04;5.88;;;3.67;;
21018;SDS011;10667;51.056;3.732;2024-02-16T02:37:30;4.68;;;3.33;;
21018;SDS011;10667;51.056;3.732;2024-02-16T02:39:56;4.00;;;3.45;;
21018;SDS011;10667;51.056;3.732;2024-02-16T02:42:21;6.30;;;3.67;;
21018;SDS011;10667;51.056;3.732;2024-02-16T02:44:47;7.05;;;3.60;;
21018;SDS011;10667;51.056;3.732;2024-02-16T02:47:15;7.43;;;3.50;;
21018;SDS011;10667;51.056;3.732;2024-02-16T02:49:44;6.57;;;3.95;;
21018;SDS011;10667;51.056;3.732;2024-02-16T02:52:10;6.80;;;3.88;;
21018;SDS011;10667;51.056;3.732;2024-02-16T02:54:35;8.60;;;3.75;;
21018;SDS011;10667;51.056;3.732;2024-02-16T02:57:01;7.80;;;4.18;;
21018;SDS011;10667;51.056;3.732;2024-02-16T02:59:27;9.40;;;4.07;;
21018;SDS011;10667;51.056;3.732;2024-02-16T03:01:53;7.95;;;3.75;;
21018;SDS011;10667;51.056;3.732;2024-02-16T03:04:19;5.07;;;3.58;;
21018;SDS011;10667;51.056;3.732;2024-02-16T03:06:45;5.47;;;3.90;;
21018;SDS011;10667;51.056;3.732;2024-02-16T03:09:11;7.70;;;3.65;;
21018;SDS011;10667;51.056;3.732;2024-02-16T03:11:40;7.70;;;4.30;;
21018;SDS011;10667;51.056;3.732;2024-02-16T03:14:05;8.93;;;4.47;;
21018;SDS011;10667;51.056;3.732;2024-02-16T03:16:31;6.75;;;3.05;;
21018;SDS011;10667;51.056;3.732;2024-02-16T03:18:57;5.60;;;3.75;;
21018;SDS011;10667;51.056;3.732;2024-02-16T03:21:23;6.60;;;4.10;;
21018;SDS011;10667;51.056;3.732;2024-02-16T03:23:49;9.15;;;4.22;;
21018;SDS011;10667;51.056;3.732;2024-02-16T03:26:18;8.65;;;3.63;;
21018;SDS011;10667;51.056;3.732;2024-02-16T03:28:45;8.43;;;3.78;;
21018;SDS011;10667;51.056;3.732;2024-02-16T03:31:18;6.85;;;3.33;;
21018;SDS011;10667;51.056;3.732;2024-02-16T03:33:45;6.53;;;3.65;;
21018;SDS011;10667;51.056;3.732;2024-02-16T03:36:12;7.68;;;3.90;;
21018;SDS011;10667;51.056;3.732;2024-02-16T03:38:42;6.10;;;3.50;;
21018;SDS011;10667;51.056;3.732;2024-02-16T03:41:17;9.07;;;3.67;;
21018;SDS011;10667;51.056;3.732;2024-02-16T03:43:44;5.03;;;3.45;;
21018;SDS011;10667;51.056;3.732;2024-02-16T03:46:10;9.07;;;3.90;;
21018;SDS011;10667;51.056;3.732;2024-02-16T03:48:36;6.53;;;3.80;;
21018;SDS011;10667;51.056;3.732;2024-02-16T03:51:01;6.55;;;3.80;;
21018;SDS011;10667;51.056;3.732;2024-02-16T03:53:30;5.60;;;3.67;;
21018;SDS011;10667;51.056;3.732;2024-02-16T03:55:56;5.53;;;3.67;;
21018;SDS011;10667;51.056;3.732;2024-02-16T03:58:22;6.70;;;3.95;;
21018;SDS011;10667;51.056;3.732;2024-02-16T04:00:48;5.10;;;3.78;;
21018;SDS011;10667;51.056;3.732;2024-02-16T04:03:14;7.78;;;4.10;;
21018;SDS011;10667;51.056;3.732;2024-02-16T04:05:40;6.30;;;3.58;;
21018;SDS011;10667;51.056;3.732;2024-02-16T04:08:06;6.00;;;3.70;;
21018;SDS011;10667;51.056;3.732;2024-02-16T04:10:35;7.20;;;3.95;;
21018;SDS011;10667;51.056;3.732;2024-02-16T04:13:01;6.18;;;3.85;;
21018;SDS011;10667;51.056;3.732;2024-02-16T04:15:27;7.10;;;4.00;;
21018;SDS011;10667;51.056;3.732;2024-02-16T04:17:53;7.47;;;3.53;;
21018;SDS011;10667;51.056;3.732;2024-02-16T04:20:19;6.28;;;3.63;;
21018;SDS011;10667;51.056;3.732;2024-02-16T04:22:45;7.65;;;4.07;;
21018;SDS011;10667;51.056;3.732;2024-02-16T04:25:11;7.43;;;3.72;;
21018;SDS011;10667;51.056;3.732;2024-02-16T04:27:37;6.00;;;4.03;;
21018;SDS011;10667;51.056;3.732;2024-02-16T04:30:03;5.80;;;4.25;;
21018;SDS011;10667;51.056;3.732;2024-02-16T04:32:30;7.15;;;3.72;;
21018;SDS011;10667;51.056;3.732;2024-02-16T04:34:56;6.63;;;3.83;;
21018;SDS011;10667;51.056;3.732;2024-02-16T04:37:22;6.95;;;3.90;;
21018;SDS011;10667;51.056;3.732;2024-02-16T04:39:48;5.22;;;3.85;;
21018;SDS011;10667;51.056;3.732;2024-02-16T04:42:14;8.90;;;3.80;;
21018;SDS011;10667;51.056;3.732;2024-02-16T04:44:41;6.53;;;3.83;;
21018;SDS011;10667;51.056;3.732;2024-02-16T04:47:07;6.40;;;3.65;;
21018;SDS011;10667;51.056;3.732;2024-02-16T04:49:33;7.10;;;4.07;;
21018;SDS011;10667;51.056;3.732;2024-02-16T04:51:58;8.82;;;3.67;;
21018;SDS011;10667;51.056;3.732;2024-02-16T04:54:24;11.10;;;4.10;;
21018;SDS011;10667;51.056;3.732;2024-02-16T04:56:50;6.35;;;3.58;;
21018;SDS011;10667;51.056;3.732;2024-02-16T04:59:16;6.78;;;4.15;;
21018;SDS011;10667;51.056;3.732;2024-02-16T05:01:45;5.15;;;3.83;;
21018;SDS011;10667;51.056;3.732;2024-02-16T05:04:11;6.40;;;3.80;;
21018;SDS011;10667;51.056;3.732;2024-02-16T05:06:45;7.97;;;3.72;;
21018;SDS011;10667;51.056;3.732;2024-02-16T05:09:11;6.95;;;4.18;;
21018;SDS011;10667;51.056;3.732;2024-02-16T05:11:37;6.55;;;4.10;;
21018;SDS011;10667;51.056;3.732;2024-02-16T05:14:03;8.85;;;4.13;;
21018;SDS011;10667;51.056;3.732;2024-02-16T05:16:29;5.68;;;4.10;;
21018;SDS011;10667;51.056;3.732;2024-02-16T05:18:57;6.53;;;4.03;;
21018;SDS011;10667;51.056;3.732;2024-02-16T05:21:23;14.98;;;4.47;;
21018;SDS011;10667;51.056;3.732;2024-02-16T05:23:49;5.40;;;3.40;;
21018;SDS011;10667;51.056;3.732;2024-02-16T05:26:14;8.07;;;4.07;;
21018;SDS011;10667;51.056;3.732;2024-02-16T05:28:40;7.90;;;4.10;;
21018;SDS011;10667;51.056;3.732;2024-02-16T05:31:16;6.97;;;3.95;;
21018;SDS011;10667;51.056;3.732;2024-02-16T05:33:43;9.77;;;4.60;;
21018;SDS011;10667;51.056;3.732;2024-02-16T05:36:10;6.70;;;4.32;;
21018;SDS011;10667;51.056;3.732;2024-02-16T05:38:36;8.38;;;4.20;;
21018;SDS011;10667;51.056;3.732;2024-02-16T05:41:05;6.13;;;3.60;;
21018;SDS011;10667;51.056;3.732;2024-02-16T05:43:31;9.27;;;4.13;;
21018;SDS011;10667;51.056;3.732;2024-02-16T05:45:58;11.85;;;5.03;;
21018;SDS011;10667;51.056;3.732;2024-02-16T05:48:24;6.22;;;4.85;;
21018;SDS011;10667;51.056;3.732;2024-02-16T05:50:51;5.78;;;3.80;;
21018;SDS011;10667;51.056;3.732;2024-02-16T05:53:17;5.53;;;4.13;;
21018;SDS011;10667;51.056;3.732;2024-02-16T05:55:44;10.00;;;4.68;;
21018;SDS011;10667;51.056;3.732;2024-02-16T05:58:10;8.70;;;4.55;;
21018;SDS011;10667;51.056;3.732;2024-02-16T06:00:37;7.88;;;4.00;;
21018;SDS011;10667;51.056;3.732;2024-02-16T06:03:02;6.60;;;3.80;;
21018;SDS011;10667;51.056;3.732;2024-02-16T06:05:28;8.38;;;4.20;;
21018;SDS011;10667;51.056;3.732;2024-02-16T06:07:54;7.53;;;5.03;;
21018;SDS011;10667;51.056;3.732;2024-02-16T06:10:22;7.30;;;4.57;;
21018;SDS011;10667;51.056;3.732;2024-02-16T06:12:47;8.25;;;4.35;;
21018;SDS011;10667;51.056;3.732;2024-02-16T06:15:13;6.35;;;4.45;;
21018;SDS011;10667;51.056;3.732;2024-02-16T06:17:40;6.88;;;4.22;;
21018;SDS011;10667;51.056;3.732;2024-02-16T06:20:05;7.70;;;4.15;;
21018;SDS011;10667;51.056;3.732;2024-02-16T06:22:35;5.95;;;4.28;;
21018;SDS011;10667;51.056;3.732;2024-02-16T06:25:01;6.68;;;4.47;;
21018;SDS011;10667;51.056;3.732;2024-02-16T06:27:27;11.65;;;4.70;;
21018;SDS011;10667;51.056;3.732;2024-02-16T06:29:53;9.43;;;4.28;;
21018;SDS011;10667;51.056;3.732;2024-02-16T06:32:18;10.10;;;4.90;;
21018;SDS011;10667;51.056;3.732;2024-02-16T06:34:45;8.45;;;4.25;;
21018;SDS011;10667;51.056;3.732;2024-02-16T06:37:11;9.10;;;4.20;;
21018;SDS011;10667;51.056;3.732;2024-02-16T06:39:36;7.90;;;4.20;;
21018;SDS011;10667;51.056;3.732;2024-02-16T06:42:02;7.13;;;4.05;;
21018;SDS011;10667;51.056;3.732;2024-02-16T06:44:28;6.18;;;4.15;;
21018;SDS011;10667;51.056;3.732;2024-02-16T06:46:54;7.97;;;4.55;;
21018;SDS011;10667;51.056;3.732;2024-02-16T06:49:20;8.65;;;4.82;;
21018;SDS011;10667;51.056;3.732;2024-02-16T06:51:45;7.30;;;4.50;;
21018;SDS011;10667;51.056;3.732;2024-02-16T06:54:11;12.32;;;5.38;;
21018;SDS011;10667;51.056;3.732;2024-02-16T06:56:37;8.20;;;4.10;;
21018;SDS011;10667;51.056;3.732;2024-02-16T06:59:03;11.10;;;5.00;;
21018;SDS011;10667;51.056;3.732;2024-02-16T07:01:28;6.53;;;5.07;;
21018;SDS011;10667;51.056;3.732;2024-02-16T07:03:54;7.65;;;4.60;;
21018;SDS011;10667;51.056;3.732;2024-02-16T07:06:20;9.40;;;4.93;;
21018;SDS011;10667;51.056;3.732;2024-02-16T07:08:45;9.77;;;4.53;;
21018;SDS011;10667;51.056;3.732;2024-02-16T07:11:11;6.35;;;4.32;;
21018;SDS011;10667;51.056;3.732;2024-02-16T07:13:38;8.68;;;3.90;;
21018;SDS011;10667;51.056;3.732;2024-02-16T07:16:07;5.97;;;4.10;;
21018;SDS011;10667;51.056;3.732;2024-02-16T07:18:33;7.55;;;4.78;;
21018;SDS011;10667;51.056;3.732;2024-02-16T07:20:59;13.05;;;4.63;;
21018;SDS011;10667;51.056;3.732;2024-02-16T07:23:25;9.23;;;4.78;;
21018;SDS011;10667;51.056;3.732;2024-02-16T07:25:51;6.00;;;4.20;;
21018;SDS011;10667;51.056;3.732;2024-02-16T07:28:21;13.65;;;5.00;;
21018;SDS011;10667;51.056;3.732;2024-02-16T07:30:47;7.97;;;4.50;;
21018;SDS011;10667;51.056;3.732;2024-02-16T07:33:13;7.68;;;4.53;;
21018;SDS011;10667;51.056;3.732;2024-02-16T07:35:38;11.45;;;4.65;;
21018;SDS011;10667;51.056;3.732;2024-02-16T07:38:04;9.48;;;4.60;;
21018;SDS011;10667;51.056;3.732;2024-02-16T07:40:30;10.38;;;4.88;;
21018;SDS011;10667;51.056;3.732;2024-02-16T07:42:56;9.90;;;4.68;;
21018;SDS011;10667;51.056;3.732;2024-02-16T07:45:22;9.60;;;4.43;;
21018;SDS011;10667;51.056;3.732;2024-02-16T07:47:48;8.52;;;4.28;;
21018;SDS011;10667;51.056;3.732;2024-02-16T07:50:17;9.27;;;4.18;;
21018;SDS011;10667;51.056;3.732;2024-02-16T07:52:45;6.38;;;4.15;;
21018;SDS011;10667;51.056;3.732;2024-02-16T07:55:10;8.57;;;4.45;;
21018;SDS011;10667;51.056;3.732;2024-02-16T07:57:36;9.25;;;4.80;;
21018;SDS011;10667;51.056;3.732;2024-02-16T08:00:03;8.80;;;5.47;;
21018;SDS011;10667;51.056;3.732;2024-02-16T08:02:32;8.43;;;5.07;;
21018;SDS011;10667;51.056;3.732;2024-02-16T08:04:58;8.73;;;4.40;;
21018;SDS011;10667;51.056;3.732;2024-02-16T08:07:24;9.98;;;4.45;;
21018;SDS011;10667;51.056;3.732;2024-02-16T08:09:50;10.25;;;5.20;;
21018;SDS011;10667;51.056;3.732;2024-02-16T08:12:15;11.00;;;5.50;;
21018;SDS011;10667;51.056;3.732;2024-02-16T08:14:41;9.52;;;4.60;;
21018;SDS011;10667;51.056;3.732;2024-02-16T08:17:07;8.23;;;4.90;;
21018;SDS011;10667;51.056;3.732;2024-02-16T08:19:35;6.60;;;4.93;;
21018;SDS011;10667;51.056;3.732;2024-02-16T08:22:05;9.93;;;4.40;;
21018;SDS011;10667;51.056;3.732;2024-02-16T08:24:35;8.15;;;4.63;;
21018;SDS011;10667;51.056;3.732;2024-02-16T08:27:03;12.15;;;4.75;;
21018;SDS011;10667;51.056;3.732;2024-02-16T08:29:32;7.68;;;4.90;;
21018;SDS011;10667;51.056;3.732;2024-02-16T08:31:57;10.55;;;4.72;;
21018;SDS011;10667;51.056;3.732;2024-02-16T08:34:23;9.82;;;5.55;;
21018;SDS011;10667;51.056;3.732;2024-02-16T08:36:51;10.75;;;4.60;;
21018;SDS011;10667;51.056;3.732;2024-02-16T08:39:16;9.95;;;4.65;;
21018;SDS011;10667;51.056;3.732;2024-02-16T08:41:43;11.60;;;5.55;;
21018;SDS011;10667;51.056;3.732;2024-02-16T08:44:09;8.70;;;4.30;;
21018;SDS011;10667;51.056;3.732;2024-02-16T08:46:38;8.77;;;5.63;;
21018;SDS011;10667;51.056;3.732;2024-02-16T08:49:04;12.45;;;5.65;;
21018;SDS011;10667;51.056;3.732;2024-02-16T08:51:34;10.07;;;4.78;;
21018;SDS011;10667;51.056;3.732;2024-02-16T08:53:59;9.63;;;5.10;;
21018;SDS011;10667;51.056;3.732;2024-02-16T08:56:26;9.48;;;5.20;;
21018;SDS011;10667;51.056;3.732;2024-02-16T08:58:52;9.80;;;5.32;;
21018;SDS011;10667;51.056;3.732;2024-02-16T09:01:18;10.75;;;4.93;;
21018;SDS011;10667;51.056;3.732;2024-02-16T09:03:44;11.63;;;5.47;;
21018;SDS011;10667;51.056;3.732;2024-02-16T09:06:09;11.07;;;4.70;;
21018;SDS011;10667;51.056;3.732;2024-02-16T09:08:35;13.70;;;5.28;;
21018;SDS011;10667;51.056;3.732;2024-02-16T09:11:04;13.48;;;5.10;;
21018;SDS011;10667;51.056;3.732;2024-02-16T09:13:36;10.00;;;4.97;;
21018;SDS011;10667;51.056;3.732;2024-02-16T09:16:04;9.85;;;5.20;;
21018;SDS011;10667;51.056;3.732;2024-02-16T09:18:30;8.82;;;5.28;;
21018;SDS011;10667;51.056;3.732;2024-02-16T09:20:56;13.88;;;6.15;;
21018;SDS011;10667;51.056;3.732;2024-02-16T09:23:21;8.23;;;5.45;;
21018;SDS011;10667;51.056;3.732;2024-02-16T09:25:47;10.05;;;5.75;;
21018;SDS011;10667;51.056;3.732;2024-02-16T09:28:14;13.73;;;6.10;;
21018;SDS011;10667;51.056;3.732;2024-02-16T09:30:39;13.80;;;6.18;;
21018;SDS011;10667;51.056;3.732;2024-02-16T09:33:05;8.95;;;5.68;;
21018;SDS011;10667;51.056;3.732;2024-02-16T09:35:32;12.00;;;6.20;;
21018;SDS011;10667;51.056;3.732;2024-02-16T09:37:58;9.63;;;6.95;;
21018;SDS011;10667;51.056;3.732;2024-02-16T09:40:23;11.43;;;6.22;;
21018;SDS011;10667;51.056;3.732;2024-02-16T09:42:49;15.32;;;6.32;;
21018;SDS011;10667;51.056;3.732;2024-02-16T09:45:16;16.50;;;6.75;;
21018;SDS011;10667;51.056;3.732;2024-02-16T09:47:45;15.95;;;7.65;;
21018;SDS011;10667;51.056;3.732;2024-02-16T09:50:15;11.70;;;7.18;;
21018;SDS011;10667;51.056;3.732;2024-02-16T09:52:41;14.15;;;7.55;;
21018;SDS011;10667;51.056;3.732;2024-02-16T09:55:12;14.70;;;7.68;;
21018;SDS011;10667;51.056;3.732;2024-02-16T09:57:39;17.92;;;8.52;;
21018;SDS011;10667;51.056;3.732;2024-02-16T10:00:04;16.13;;;8.25;;
21018;SDS011;10667;51.056;3.732;2024-02-16T10:02:40;16.17;;;8.13;;
21018;SDS011;10667;51.056;3.732;2024-02-16T10:07:42;16.83;;;8.80;;
21018;SDS011;10667;51.056;3.732;2024-02-16T10:10:24;14.63;;;8.57;;
21018;SDS011;10667;51.056;3.732;2024-02-16T10:15:29;18.48;;;8.95;;
21018;SDS011;10667;51.056;3.732;2024-02-16T10:18:04;20.50;;;9.20;;
21018;SDS011;10667;51.056;3.732;2024-02-16T10:20:31;21.90;;;11.23;;
21018;SDS011;10667;51.056;3.732;2024-02-16T10:23:07;20.13;;;9.77;;
21018;SDS011;10667;51.056;3.732;2024-02-16T10:25:35;18.95;;;9.48;;
21018;SDS011;10667;51.056;3.732;2024-02-16T10:28:03;19.05;;;10.25;;
21018;SDS011;10667;51.056;3.732;2024-02-16T10:30:31;14.80;;;9.45;;
21018;SDS011;10667;51.056;3.732;2024-02-16T10:33:01;22.98;;;11.10;;
21018;SDS011;10667;51.056;3.732;2024-02-16T10:35:27;16.92;;;10.73;;
21018;SDS011;10667;51.056;3.732;2024-02-16T10:37:54;18.65;;;11.95;;
21018;SDS011;10667;51.056;3.732;2024-02-16T10:40:22;18.45;;;10.75;;
21018;SDS011;10667;51.056;3.732;2024-02-16T10:42:51;21.83;;;11.48;;
21018;SDS011;10667;51.056;3.732;2024-02-16T10:45:17;18.60;;;11.70;;
21018;SDS011;10667;51.056;3.732;2024-02-16T10:47:46;21.58;;;13.32;;
21018;SDS011;10667;51.056;3.732;2024-02-16T10:50:12;24.17;;;12.82;;
21018;SDS011;10667;51.056;3.732;2024-02-16T10:52:39;20.20;;;12.63;;
21018;SDS011;10667;51.056;3.732;2024-02-16T10:55:08;25.52;;;15.15;;
21018;SDS011;10667;51.056;3.732;2024-02-16T10:57:38;28.67;;;15.68;;
21018;SDS011;10667;51.056;3.732;2024-02-16T11:00:08;22.30;;;15.18;;
21018;SDS011;10667;51.056;3.732;2024-02-16T11:02:56;28.27;;;16.48;;
21018;SDS011;10667;51.056;3.732;2024-02-16T11:05:34;23.35;;;15.32;;
21018;SDS011;10667;51.056;3.732;2024-02-16T11:08:01;23.75;;;15.88;;
21018;SDS011;10667;51.056;3.732;2024-02-16T11:10:27;23.60;;;15.77;;
21018;SDS011;10667;51.056;3.732;2024-02-16T11:12:53;26.60;;;16.80;;
21018;SDS011;10667;51.056;3.732;2024-02-16T11:15:27;22.70;;;14.25;;
21018;SDS011;10667;51.056;3.732;2024-02-16T11:17:55;22.30;;;15.20;;
21018;SDS011;10667;51.056;3.732;2024-02-16T11:20:24;25.00;;;15.88;;
21018;SDS011;10667;51.056;3.732;2024-02-16T11:22:51;25.30;;;15.65;;
21018;SDS011;10667;51.056;3.732;2024-02-16T11:25:17;24.40;;;13.85;;
21018;SDS011;10667;51.056;3.732;2024-02-16T11:27:43;17.13;;;12.30;;
21018;SDS011;10667;51.056;3.732;2024-02-16T11:30:10;15.45;;;11.57;;
21018;SDS011;10667;51.056;3.732;2024-02-16T11:32:36;15.82;;;10.52;;
21018;SDS011;10667;51.056;3.732;2024-02-16T11:35:08;15.00;;;10.50;;
21018;SDS011;10667;51.056;3.732;2024-02-16T11:37:33;13.27;;;9.20;;
21018;SDS011;10667;51.056;3.732;2024-02-16T11:39:59;12.90;;;9.32;;
21018;SDS011;10667;51.056;3.732;2024-02-16T11:42:25;14.60;;;8.98;;
21018;SDS011;10667;51.056;3.732;2024-02-16T11:44:52;13.50;;;9.05;;
21018;SDS011;10667;51.056;3.732;2024-02-16T11:47:19;11.90;;;8.73;;
21018;SDS011;10667;51.056;3.732;2024-02-16T11:49:50;12.23;;;8.25;;
21018;SDS011;10667;51.056;3.732;2024-02-16T11:52:45;11.98;;;7.80;;
21018;SDS011;10667;51.056;3.732;2024-02-16T11:55:12;12.38;;;8.52;;
21018;SDS011;10667;51.056;3.732;2024-02-16T11:57:40;13.23;;;8.07;;
21018;SDS011;10667;51.056;3.732;2024-02-16T12:00:06;12.63;;;8.20;;
21018;SDS011;10667;51.056;3.732;2024-02-16T12:02:36;12.75;;;8.60;;
21018;SDS011;10667;51.056;3.732;2024-02-16T12:05:02;11.43;;;7.60;;
21018;SDS011;10667;51.056;3.732;2024-02-16T12:07:29;11.00;;;7.38;;
21018;SDS011;10667;51.056;3.732;2024-02-16T12:09:59;9.85;;;7.43;;
21018;SDS011;10667;51.056;3.732;2024-02-16T12:12:26;11.00;;;7.35;;
21018;SDS011;10667;51.056;3.732;2024-02-16T12:14:53;9.70;;;6.28;;
21018;SDS011;10667;51.056;3.732;2024-02-16T12:17:19;9.65;;;6.70;;
21018;SDS011;10667;51.056;3.732;2024-02-16T12:19:45;8.00;;;6.63;;
21018;SDS011;10667;51.056;3.732;2024-02-16T12:22:21;10.00;;;6.85;;
21018;SDS011;10667;51.056;3.732;2024-02-16T12:24:48;8.05;;;6.30;;
21018;SDS011;10667;51.056;3.732;2024-02-16T12:27:15;7.68;;;5.53;;
21018;SDS011;10667;51.056;3.732;2024-02-16T12:29:41;7.20;;;5.80;;
21018;SDS011;10667;51.056;3.732;2024-02-16T12:32:07;8.70;;;6.55;;
21018;SDS011;10667;51.056;3.732;2024-02-16T12:34:36;8.07;;;5.72;;
21018;SDS011;10667;51.056;3.732;2024-02-16T12:37:05;10.43;;;6.22;;
21018;SDS011;10667;51.056;3.732;2024-02-16T12:39:34;9.70;;;5.80;;
21018;SDS011;10667;51.056;3.732;2024-02-16T12:41:59;6.68;;;5.55;;
21018;SDS011;10667;51.056;3.732;2024-02-16T12:44:25;8.80;;;5.28;;
21018;SDS011;10667;51.056;3.732;2024-02-16T12:46:51;8.13;;;4.90;;
21018;SDS011;10667;51.056;3.732;2024-02-16T12:49:16;6.88;;;5.18;;
21018;SDS011;10667;51.056;3.732;2024-02-16T12:51:43;5.85;;;4.78;;
21018;SDS011;10667;51.056;3.732;2024-02-16T12:54:11;7.53;;;5.65;;
21018;SDS011;10667;51.056;3.732;2024-02-16T12:56:39;6.10;;;5.13;;
21018;SDS011;10667;51.056;3.732;2024-02-16T12:59:05;5.25;;;4.65;;
21018;SDS011;10667;51.056;3.732;2024-02-16T13:01:31;5.80;;;4.57;;
21018;SDS011;10667;51.056;3.732;2024-02-16T13:03:57;7.82;;;5.38;;
21018;SDS011;10667;51.056;3.732;2024-02-16T13:06:22;11.20;;;5.70;;
21018;SDS011;10667;51.056;3.732;2024-02-16T13:08:48;5.35;;;4.85;;
21018;SDS011;10667;51.056;3.732;2024-02-16T13:11:14;7.78;;;5.28;;
21018;SDS011;10667;51.056;3.732;2024-02-16T13:13:39;5.90;;;4.13;;
21018;SDS011;10667;51.056;3.732;2024-02-16T13:16:05;5.30;;;4.50;;
21018;SDS011;10667;51.056;3.732;2024-02-16T13:18:31;7.57;;;4.60;;
21018;SDS011;10667;51.056;3.732;2024-02-16T13:20:57;6.22;;;4.45;;
21018;SDS011;10667;51.056;3.732;2024-02-16T13:23:22;5.35;;;4.38;;
21018;SDS011;10667;51.056;3.732;2024-02-16T13:25:48;8.23;;;4.30;;
21018;SDS011;10667;51.056;3.732;2024-02-16T13:28:14;8.02;;;4.70;;
21018;SDS011;10667;51.056;3.732;2024-02-16T13:30:41;9.00;;;5.00;;
21018;SDS011;10667;51.056;3.732;2024-02-16T13:33:07;10.30;;;5.65;;
21018;SDS011;10667;51.056;3.732;2024-02-16T13:35:34;8.10;;;5.97;;
21018;SDS011;10667;51.056;3.732;2024-02-16T13:38:01;6.03;;;4.88;;
21018;SDS011;10667;51.056;3.732;2024-02-16T13:40:26;8.27;;;5.40;;
21018;SDS011;10667;51.056;3.732;2024-02-16T13:42:52;8.00;;;5.55;;
21018;SDS011;10667;51.056;3.732;2024-02-16T13:45:24;7.47;;;5.40;;
21018;SDS011;10667;51.056;3.732;2024-02-16T13:47:51;9.13;;;5.55;;
21018;SDS011;10667;51.056;3.732;2024-02-16T13:50:16;8.02;;;5.65;;
21018;SDS011;10667;51.056;3.732;2024-02-16T13:52:42;6.47;;;5.13;;
21018;SDS011;10667;51.056;3.732;2024-02-16T13:55:08;5.65;;;4.30;;
21018;SDS011;10667;51.056;3.732;2024-02-16T13:57:34;6.32;;;4.50;;
21018;SDS011;10667;51.056;3.732;2024-02-16T13:59:59;4.32;;;3.03;;
21018;SDS011;10667;51.056;3.732;2024-02-16T14:02:25;5.88;;;3.13;;
21018;SDS011;10667;51.056;3.732;2024-02-16T14:04:55;4.82;;;3.08;;
21018;SDS011;10667;51.056;3.732;2024-02-16T14:07:21;4.45;;;3.05;;
21018;SDS011;10667;51.056;3.732;2024-02-16T14:09:47;6.38;;;3.25;;
21018;SDS011;10667;51.056;3.732;2024-02-16T14:12:13;5.90;;;3.28;;
21018;SDS011;10667;51.056;3.732;2024-02-16T14:14:39;6.55;;;3.10;;
21018;SDS011;10667;51.056;3.732;2024-02-16T14:17:04;6.03;;;3.70;;
21018;SDS011;10667;51.056;3.732;2024-02-16T14:19:30;3.95;;;3.05;;
21018;SDS011;10667;51.056;3.732;2024-02-16T14:21:56;4.85;;;3.25;;
21018;SDS011;10667;51.056;3.732;2024-02-16T14:24:21;5.82;;;3.58;;
21018;SDS011;10667;51.056;3.732;2024-02-16T14:26:47;6.22;;;3.53;;
21018;SDS011;10667;51.056;3.732;2024-02-16T14:29:13;5.78;;;3.90;;
21018;SDS011;10667;51.056;3.732;2024-02-16T14:31:38;9.07;;;3.92;;
21018;SDS011;10667;51.056;3.732;2024-02-16T14:34:04;5.55;;;4.20;;
21018;SDS011;10667;51.056;3.732;2024-02-16T14:36:30;4.40;;;3.78;;
21018;SDS011;10667;51.056;3.732;2024-02-16T14:38:55;7.45;;;3.78;;
21018;SDS011;10667;51.056;3.732;2024-02-16T14:41:21;8.52;;;4.18;;
21018;SDS011;10667;51.056;3.732;2024-02-16T14:43:48;6.65;;;4.20;;
21018;SDS011;10667;51.056;3.732;2024-02-16T14:46:13;9.05;;;5.05;;